createdAt,value
2023-04-26T00:27:26.740Z,3.83
2023-04-26T00:57:27.214Z,3.33
2023-04-26T01:27:26.881Z,3.43
2023-04-26T01:57:26.730Z,2.99
2023-04-26T02:27:27.017Z,2.52
2023-04-26T02:57:26.813Z,2.18
2023-04-26T03:27:26.724Z,1.73
2023-04-26T03:57:26.908Z,1.68
2023-04-26T04:27:26.472Z,1.63
2023-04-26T04:57:26.685Z,1.23
2023-04-26T05:27:26.838Z,1.58
2023-04-26T05:57:26.809Z,2.55
2023-04-26T06:27:26.535Z,4.27
2023-04-26T06:57:26.893Z,6.57
2023-04-26T07:27:26.461Z,8.84
2023-04-26T08:27:26.852Z,11.46
2023-04-26T08:57:26.190Z,16.53
2023-04-26T09:27:26.655Z,17.73
2023-04-26T09:57:26.523Z,18.5
2023-04-26T10:27:25.893Z,17.38
2023-04-26T10:57:26.333Z,17.74
2023-04-26T11:27:26.419Z,18.84
2023-04-26T11:57:26.143Z,19.1
2023-04-26T12:27:26.004Z,19.84
2023-04-26T12:57:26.184Z,20.08
2023-04-26T13:27:25.913Z,20.43
2023-04-26T13:57:25.995Z,19.75
2023-04-26T14:27:25.908Z,19.61
2023-04-26T14:57:25.638Z,19.77
2023-04-26T15:27:25.949Z,19.55
2023-04-26T15:57:25.672Z,19.04
2023-04-26T16:27:25.484Z,18.84
2023-04-26T16:57:25.400Z,18.31
2023-04-26T17:27:25.911Z,17.77
2023-04-26T17:57:25.438Z,17.21
2023-04-26T18:27:26.552Z,15.96
2023-04-26T18:57:25.388Z,14.31
2023-04-26T19:27:25.324Z,13.62
2023-04-26T19:57:25.304Z,13.46
2023-04-26T20:27:25.880Z,12.96
2023-04-26T21:27:25.321Z,12.53
2023-04-26T21:57:24.999Z,11.99
2023-04-26T22:27:25.080Z,11.88
2023-04-26T22:57:24.950Z,11.69
2023-04-26T23:27:25.180Z,10.98
2023-04-26T23:57:24.799Z,9.95
